Time;durP1;ratioP1;P1;durP2;ratioP2;P2;SDS_P1;SDS_P2;PMS_P1;PMS_P2;Temp;Humidity;BMP_temperature;BMP_pressure;BME280_temperature;BME280_humidity;BME280_pressure;Samples;Min_cycle;Max_cycle;Signal;HPM_P1;HPM_P2
2022/03/21 00:00:52;;;;;;;11.30;4.97;;;-0.30;99.90;;;;;;5069614;28;20153;-72
2022/03/21 00:03:21;;;;;;;7.70;4.47;;;-0.40;99.90;;;;;;5069037;28;20217;-71
2022/03/21 00:05:47;;;;;;;7.43;4.72;;;-0.30;99.90;;;;;;5069743;28;20216;-72
2022/03/21 00:08:15;;;;;;;8.18;4.45;;;-0.30;99.90;;;;;;5067890;28;20216;-72
2022/03/21 00:10:41;;;;;;;9.20;5.28;;;-0.40;99.90;;;;;;5069191;28;20742;-72
2022/03/21 00:13:08;;;;;;;6.88;4.03;;;-0.50;99.90;;;;;;5069569;28;20255;-72
2022/03/21 00:15:35;;;;;;;12.02;5.88;;;-0.70;99.90;;;;;;5069606;28;20165;-72
2022/03/21 00:18:04;;;;;;;7.53;4.45;;;-0.80;99.90;;;;;;5069590;28;20161;-72
2022/03/21 00:20:32;;;;;;;12.90;6.88;;;-0.90;99.90;;;;;;5068865;28;20207;-72
2022/03/21 00:22:58;;;;;;;7.63;4.18;;;-0.80;99.90;;;;;;5069437;28;20191;-73
2022/03/21 00:25:24;;;;;;;8.90;4.25;;;-0.70;99.90;;;;;;5069401;28;20161;-72
2022/03/21 00:27:50;;;;;;;7.68;4.38;;;-0.70;99.90;;;;;;5069496;28;20212;-73
2022/03/21 00:30:17;;;;;;;7.00;4.45;;;-0.60;99.90;;;;;;5068486;28;20222;-72
2022/03/21 00:32:43;;;;;;;9.13;4.38;;;-0.80;99.90;;;;;;5069376;28;20152;-73
2022/03/21 00:35:15;;;;;;;8.80;4.90;;;-0.80;99.90;;;;;;5069309;28;20233;-73
2022/03/21 00:37:42;;;;;;;7.53;3.80;;;-0.70;99.90;;;;;;5051411;28;20544;-73
2022/03/21 00:40:09;;;;;;;6.57;4.32;;;-0.70;99.90;;;;;;5068216;28;20284;-73
2022/03/21 00:42:37;;;;;;;7.90;4.25;;;-0.70;99.90;;;;;;5069071;28;20193;-72
2022/03/21 00:45:06;;;;;;;9.63;4.25;;;-0.80;99.90;;;;;;5069098;28;20239;-72
2022/03/21 00:47:36;;;;;;;6.88;3.67;;;-0.70;99.90;;;;;;5069222;28;20156;-72
2022/03/21 00:50:03;;;;;;;9.68;4.00;;;-0.70;99.90;;;;;;5068638;28;20188;-72
2022/03/21 00:52:30;;;;;;;6.32;3.65;;;-0.70;99.90;;;;;;5068881;28;20637;-72
2022/03/21 00:54:56;;;;;;;6.45;3.47;;;-0.60;99.90;;;;;;5069126;28;20164;-72
2022/03/21 00:57:22;;;;;;;6.85;3.53;;;-0.50;99.90;;;;;;5068808;28;20228;-72
2022/03/21 00:59:48;;;;;;;7.28;3.53;;;-0.50;99.90;;;;;;5068894;28;20200;-72
2022/03/21 01:02:14;;;;;;;9.23;4.75;;;-0.40;99.90;;;;;;5067919;28;20204;-71
2022/03/21 01:04:40;;;;;;;7.82;4.07;;;-0.40;99.90;;;;;;5065615;28;20153;-72
2022/03/21 01:07:06;;;;;;;6.82;3.75;;;-0.50;99.90;;;;;;5065525;28;20157;-72
2022/03/21 01:09:32;;;;;;;5.55;3.17;;;-0.40;99.90;;;;;;5065614;28;20183;-71
2022/03/21 01:12:00;;;;;;;6.22;3.70;;;-0.40;99.90;;;;;;5065483;28;20195;-72
2022/03/21 01:14:26;;;;;;;8.63;3.63;;;-0.50;99.90;;;;;;5066615;28;20159;-72
2022/03/21 01:16:55;;;;;;;8.40;4.47;;;-0.50;99.90;;;;;;5066605;28;20168;-72
2022/03/21 01:19:21;;;;;;;6.72;3.67;;;-0.50;99.90;;;;;;5068037;28;20228;-72
2022/03/21 01:21:47;;;;;;;9.23;3.50;;;-0.50;99.90;;;;;;5068022;28;20208;-72
2022/03/21 01:24:12;;;;;;;7.60;3.75;;;-0.50;99.90;;;;;;5068757;28;20277;-73
2022/03/21 01:26:38;;;;;;;9.80;3.38;;;-0.60;99.90;;;;;;5068738;28;20172;-73
2022/03/21 01:29:04;;;;;;;5.53;3.00;;;-0.70;99.90;;;;;;5068799;28;20177;-73
2022/03/21 01:31:30;;;;;;;7.20;3.50;;;-0.80;99.90;;;;;;5068671;28;20264;-72
2022/03/21 01:33:56;;;;;;;6.22;3.83;;;-0.80;99.90;;;;;;5068101;28;20163;-73
2022/03/21 01:36:22;;;;;;;4.05;3.03;;;-0.80;99.90;;;;;;5068699;28;20180;-72
2022/03/21 01:38:49;;;;;;;3.47;2.63;;;-0.60;99.90;;;;;;5068688;28;20173;-71
2022/03/21 01:41:15;;;;;;;6.40;3.05;;;-0.40;99.90;;;;;;5068503;28;20618;-72
2022/03/21 01:44:06;;;;;;;9.48;3.92;;;-0.30;99.90;;;;;;5068029;28;20157;-72
2022/03/21 01:46:33;;;;;;;5.65;3.15;;;-0.50;99.90;;;;;;5068639;28;20187;-72
2022/03/21 01:49:00;;;;;;;4.30;3.70;;;-0.50;99.90;;;;;;5068554;28;20235;-73
2022/03/21 01:51:27;;;;;;;5.60;3.40;;;-0.60;99.90;;;;;;5069812;28;20196;-72
2022/03/21 01:56:41;;;;;;;7.47;4.13;;;-0.70;99.90;;;;;;5072158;28;20163;-71
2022/03/21 01:59:12;;;;;;;4.50;3.13;;;-0.60;99.90;;;;;;5072259;28;20191;-72
2022/03/21 02:01:39;;;;;;;5.10;2.97;;;-0.60;99.90;;;;;;5072074;28;20685;-72
2022/03/21 02:04:05;;;;;;;6.57;3.38;;;-0.60;99.90;;;;;;5071517;28;20622;-72
2022/03/21 02:06:32;;;;;;;5.70;4.50;;;-0.70;99.90;;;;;;5072176;28;20322;-71
2022/03/21 02:09:00;;;;;;;6.28;3.72;;;-0.80;99.90;;;;;;5072046;28;20187;-72
2022/03/21 02:11:27;;;;;;;8.18;3.28;;;-0.80;99.90;;;;;;5071828;28;20192;-71
2022/03/21 02:14:01;;;;;;;8.18;3.63;;;-0.80;99.90;;;;;;5071805;28;20165;-72
2022/03/21 02:16:29;;;;;;;4.57;2.72;;;-0.80;99.90;;;;;;5071584;28;20251;-72
2022/03/21 02:18:58;;;;;;;5.15;3.75;;;-0.90;99.90;;;;;;5071884;28;20183;-71
2022/03/21 02:21:50;;;;;;;5.97;2.92;;;-0.90;99.90;;;;;;5071652;28;20276;-72
2022/03/21 02:24:52;;;;;;;6.93;3.85;;;-1.00;99.90;;;;;;5057242;28;20211;-72
2022/03/21 02:27:18;;;;;;;5.93;3.60;;;-1.00;99.90;;;;;;5071586;28;20172;-72
2022/03/21 02:29:48;;;;;;;6.15;3.58;;;-0.90;99.90;;;;;;5071558;28;20157;-72
2022/03/21 02:32:15;;;;;;;3.95;2.83;;;-0.80;99.90;;;;;;5071381;28;20196;-70
2022/03/21 02:34:41;;;;;;;7.93;3.40;;;-0.70;99.90;;;;;;5071672;28;20247;-72
2022/03/21 02:37:10;;;;;;;5.15;2.90;;;-0.70;99.90;;;;;;5070821;28;20165;-72
2022/03/21 02:39:38;;;;;;;10.27;3.97;;;-0.80;99.90;;;;;;5071430;28;20157;-70
2022/03/21 02:42:05;;;;;;;5.72;3.17;;;-0.70;99.90;;;;;;5071150;28;20200;-73
2022/03/21 02:44:35;;;;;;;6.57;3.72;;;-0.80;99.90;;;;;;5071336;28;20171;-73
2022/03/21 02:47:03;;;;;;;5.85;3.25;;;-0.70;99.90;;;;;;5070701;28;20149;-74
2022/03/21 02:49:29;;;;;;;8.05;3.38;;;-0.80;99.90;;;;;;5071238;28;20164;-71
2022/03/21 02:51:59;;;;;;;7.00;3.65;;;-0.80;99.90;;;;;;5071208;28;20192;-73
2022/03/21 02:54:28;;;;;;;3.63;3.05;;;-0.90;99.90;;;;;;5071119;28;20176;-73
2022/03/21 02:56:55;;;;;;;4.95;3.80;;;-0.90;99.90;;;;;;5070423;28;20183;-71
2022/03/21 02:59:21;;;;;;;6.57;4.35;;;-1.10;99.90;;;;;;5071323;28;20164;-72
2022/03/21 03:01:49;;;;;;;4.88;3.28;;;-1.00;99.90;;;;;;5070686;28;20200;-71
2022/03/21 03:04:15;;;;;;;5.60;2.63;;;-1.00;99.90;;;;;;5070999;28;20224;-72
2022/03/21 03:06:41;;;;;;;4.60;3.15;;;-1.00;99.90;;;;;;5070481;28;20758;-71
2022/03/21 03:09:07;;;;;;;4.80;3.20;;;-1.10;99.90;;;;;;5070872;28;20164;-71
2022/03/21 03:11:37;;;;;;;4.40;3.03;;;-1.10;99.90;;;;;;5069247;28;20247;-71
2022/03/21 03:14:07;;;;;;;5.43;3.65;;;-1.10;99.90;;;;;;5071032;28;20168;-71
2022/03/21 03:16:34;;;;;;;4.85;3.30;;;-1.30;99.90;;;;;;5070898;28;20161;-71
2022/03/21 03:19:00;;;;;;;11.45;3.70;;;-1.30;99.90;;;;;;5070075;28;20614;-72
2022/03/21 03:21:33;;;;;;;3.55;2.28;;;-1.30;99.90;;;;;;5070557;28;20271;-71
2022/03/21 03:24:00;;;;;;;7.22;3.50;;;-1.40;99.90;;;;;;5070795;28;20157;-72
2022/03/21 03:26:26;;;;;;;3.50;2.70;;;-1.50;99.90;;;;;;5070722;28;20161;-72
2022/03/21 03:28:52;;;;;;;4.85;3.35;;;-1.70;99.90;;;;;;5070060;28;20161;-72
2022/03/21 03:31:18;;;;;;;7.30;3.50;;;-1.80;99.90;;;;;;5070488;28;20192;-72
2022/03/21 03:33:45;;;;;;;7.80;3.75;;;-1.80;99.90;;;;;;5070442;28;20183;-72
2022/03/21 03:36:13;;;;;;;7.07;3.15;;;-1.70;99.90;;;;;;5070403;28;20187;-72
2022/03/21 03:38:39;;;;;;;6.45;3.05;;;-1.50;99.90;;;;;;5069736;28;20161;-72
2022/03/21 03:41:05;;;;;;;6.03;3.10;;;-1.40;99.90;;;;;;5070089;28;20215;-72
2022/03/21 03:43:31;;;;;;;7.45;4.20;;;-1.40;99.90;;;;;;5070161;28;20161;-71
2022/03/21 03:45:58;;;;;;;9.65;3.45;;;-1.50;99.90;;;;;;5069989;28;20165;-71
2022/03/21 03:48:25;;;;;;;6.00;3.78;;;-1.50;99.90;;;;;;5070154;28;20180;-71
2022/03/21 03:50:51;;;;;;;9.55;3.95;;;-1.60;99.90;;;;;;5069630;28;20204;-72
2022/03/21 03:53:18;;;;;;;6.03;3.60;;;-1.80;99.90;;;;;;5070066;28;20157;-71
2022/03/21 03:55:44;;;;;;;7.13;3.33;;;-1.90;99.90;;;;;;5069972;28;20193;-72
2022/03/21 03:58:10;;;;;;;9.98;3.55;;;-1.90;99.90;;;;;;5069680;28;20280;-72
2022/03/21 04:00:36;;;;;;;12.85;4.28;;;-1.80;99.90;;;;;;5069262;28;20642;-72
2022/03/21 04:05:49;;;;;;;8.30;3.47;;;-1.60;99.90;;;;;;5069876;28;20164;-74
2022/03/21 04:08:16;;;;;;;8.57;4.55;;;-1.70;99.90;;;;;;5069712;28;20179;-72
2022/03/21 04:10:42;;;;;;;4.47;3.60;;;-1.80;99.90;;;;;;5069050;28;20199;-72
2022/03/21 04:13:08;;;;;;;7.05;3.42;;;-1.70;99.90;;;;;;5069321;28;20165;-73
2022/03/21 04:15:34;;;;;;;4.20;3.10;;;-1.70;99.90;;;;;;5069230;28;20157;-74
2022/03/21 04:18:04;;;;;;;6.47;3.00;;;-1.70;99.90;;;;;;5069707;28;20244;-72
2022/03/21 04:20:31;;;;;;;9.27;4.22;;;-1.60;99.90;;;;;;5068802;28;20256;-72
2022/03/21 04:23:01;;;;;;;4.20;3.05;;;-1.60;99.90;;;;;;5051706;28;20189;-72
2022/03/21 04:25:27;;;;;;;10.32;3.33;;;-1.50;99.90;;;;;;5069556;28;20172;-72
2022/03/21 04:27:54;;;;;;;5.30;3.13;;;-1.50;99.90;;;;;;5069387;28;20161;-72
2022/03/21 04:30:20;;;;;;;6.95;3.22;;;-1.50;99.90;;;;;;5069360;28;20216;-72
2022/03/21 04:32:46;;;;;;;8.57;3.53;;;-1.50;99.90;;;;;;5068737;28;20161;-72
2022/03/21 04:35:13;;;;;;;5.05;3.88;;;-1.50;99.90;;;;;;5069355;28;20164;-73
2022/03/21 04:37:40;;;;;;;8.85;3.70;;;-1.60;99.90;;;;;;5051168;28;20211;-73
2022/03/21 04:40:07;;;;;;;4.53;3.15;;;-1.70;99.90;;;;;;5069030;28;20207;-72
2022/03/21 04:42:34;;;;;;;5.35;3.45;;;-1.70;99.90;;;;;;5068609;28;20219;-72
2022/03/21 04:45:01;;;;;;;6.07;3.75;;;-1.70;99.90;;;;;;5069142;28;20185;-72
2022/03/21 04:47:27;;;;;;;7.65;3.05;;;-1.70;99.90;;;;;;5051283;28;20153;-73
2022/03/21 04:49:53;;;;;;;9.40;4.47;;;-1.90;99.90;;;;;;5068945;28;20222;-72
2022/03/21 04:52:18;;;;;;;9.02;3.47;;;-1.90;99.90;;;;;;5068549;28;20219;-72
2022/03/21 04:54:44;;;;;;;6.40;3.65;;;-1.90;99.90;;;;;;5069132;28;20161;-72
2022/03/21 04:57:12;;;;;;;11.07;3.53;;;-2.00;99.90;;;;;;5068857;28;20218;-73
2022/03/21 04:59:38;;;;;;;7.47;3.10;;;-2.00;99.90;;;;;;5068907;28;20171;-73
2022/03/21 05:02:04;;;;;;;13.60;3.80;;;-1.90;99.90;;;;;;5068541;28;20192;-72
2022/03/21 05:04:31;;;;;;;5.78;3.42;;;-2.00;99.90;;;;;;5068817;28;20157;-73
2022/03/21 05:06:57;;;;;;;6.93;3.58;;;-2.10;99.90;;;;;;5068973;28;20153;-73
2022/03/21 05:09:23;;;;;;;6.72;3.60;;;-2.00;99.90;;;;;;5068782;28;20194;-73
2022/03/21 05:11:49;;;;;;;5.05;2.85;;;-1.90;99.90;;;;;;5068783;28;20196;-73
2022/03/21 05:14:18;;;;;;;5.18;2.97;;;-1.90;99.90;;;;;;5068319;28;20626;-73
2022/03/21 05:16:45;;;;;;;9.15;4.10;;;-1.80;99.90;;;;;;5068802;28;20191;-72
2022/03/21 05:19:11;;;;;;;6.05;2.83;;;-1.70;99.90;;;;;;5068894;28;20156;-72
2022/03/21 05:21:37;;;;;;;6.53;3.72;;;-1.70;99.90;;;;;;5068482;28;20225;-72
2022/03/21 05:32:15;;;;;;;7.90;3.38;;;-1.60;99.90;;;;;;5072810;28;20283;-71
2022/03/21 05:37:26;;;;;;;9.15;3.75;;;-1.50;99.90;;;;;;5072672;28;20699;-71
2022/03/21 05:42:36;;;;;;;6.68;4.03;;;-1.40;99.90;;;;;;5072434;28;20215;-71
2022/03/21 05:45:02;;;;;;;6.68;3.47;;;-1.00;99.90;;;;;;5071472;28;20161;-71
2022/03/21 05:47:28;;;;;;;5.82;3.25;;;-0.80;99.90;;;;;;5072308;28;20263;-72
2022/03/21 05:49:54;;;;;;;9.10;3.85;;;-0.80;99.90;;;;;;5072156;28;20193;-71
2022/03/21 05:52:20;;;;;;;7.03;3.92;;;-0.70;99.90;;;;;;5072219;28;20268;-71
2022/03/21 05:54:46;;;;;;;10.80;4.22;;;-0.60;99.90;;;;;;5071445;28;20252;-71
2022/03/21 05:57:12;;;;;;;5.68;3.20;;;-0.30;99.90;;;;;;5071695;28;20238;-72
2022/03/21 06:02:22;;;;;;;8.43;3.70;;;-0.40;99.90;;;;;;5071972;28;20257;-73
2022/03/21 06:04:49;;;;;;;8.23;4.88;;;-0.30;99.90;;;;;;5071831;28;20160;-73
2022/03/21 06:07:17;;;;;;;4.78;3.38;;;-0.30;99.90;;;;;;5071431;28;20187;-73
2022/03/21 06:09:43;;;;;;;7.75;4.18;;;-0.30;99.90;;;;;;5071500;28;20235;-72
2022/03/21 06:12:09;;;;;;;9.85;4.95;;;-0.30;99.90;;;;;;5071952;28;20633;-71
2022/03/21 06:14:35;;;;;;;13.82;3.88;;;-0.20;99.90;;;;;;5071427;28;20156;-72
2022/03/21 06:17:01;;;;;;;6.10;3.63;;;-0.10;99.90;;;;;;5070934;28;20554;-72
2022/03/21 06:19:27;;;;;;;10.98;4.43;;;-0.10;99.90;;;;;;5071154;28;20187;-73
2022/03/21 06:21:53;;;;;;;7.32;4.20;;;-0.10;99.90;;;;;;5071280;28;20261;-72
2022/03/21 06:24:19;;;;;;;17.38;4.72;;;0.10;99.90;;;;;;5083080;28;20176;-73
2022/03/21 06:26:45;;;;;;;9.82;4.57;;;0.20;99.90;;;;;;5091052;28;20164;-73
2022/03/21 06:29:11;;;;;;;15.48;4.38;;;0.30;99.90;;;;;;5086495;28;20251;-69
2022/03/21 06:31:37;;;;;;;7.63;4.25;;;0.60;99.90;;;;;;5071274;28;20176;-69
2022/03/21 06:34:03;;;;;;;6.75;4.47;;;0.80;99.90;;;;;;5090828;28;20184;-72
2022/03/21 06:36:30;;;;;;;23.08;4.80;;;1.00;99.90;;;;;;5090776;28;20691;-70
2022/03/21 06:38:55;;;;;;;17.92;5.03;;;1.10;99.90;;;;;;5090729;28;20148;-71
2022/03/21 06:41:21;;;;;;;10.48;4.78;;;1.20;99.90;;;;;;5091077;28;20213;-73
2022/03/21 06:43:47;;;;;;;7.53;4.28;;;1.30;99.90;;;;;;5091333;28;20180;-72
2022/03/21 06:46:13;;;;;;;9.00;5.05;;;1.60;99.50;;;;;;5091344;28;20191;-71
2022/03/21 06:48:39;;;;;;;9.02;5.15;;;1.80;99.30;;;;;;5090665;28;20156;-71
2022/03/21 06:51:05;;;;;;;9.77;4.38;;;2.00;98.90;;;;;;5091078;28;20215;-72
2022/03/21 06:53:30;;;;;;;8.93;4.82;;;2.10;99.00;;;;;;5090742;28;20202;-72
2022/03/21 06:55:56;;;;;;;9.95;4.28;;;2.10;98.60;;;;;;5091006;28;20160;-73
2022/03/21 06:58:22;;;;;;;15.32;4.00;;;2.10;98.30;;;;;;5090121;28;20223;-72
2022/03/21 07:00:48;;;;;;;11.00;5.18;;;2.30;98.40;;;;;;5072893;28;20196;-72
2022/03/21 07:03:16;;;;;;;11.02;4.57;;;3.50;97.10;;;;;;5090896;28;20221;-72
2022/03/21 07:05:44;;;;;;;16.50;5.07;;;4.20;95.30;;;;;;5090891;28;20238;-72
2022/03/21 07:08:10;;;;;;;9.07;4.30;;;5.50;94.10;;;;;;5090381;28;20160;-72
2022/03/21 07:10:40;;;;;;;7.60;5.03;;;5.10;94.40;;;;;;5090446;28;20215;-72
2022/03/21 07:13:06;;;;;;;11.70;5.13;;;5.40;94.00;;;;;;5090700;28;20175;-72
2022/03/21 07:15:32;;;;;;;12.48;6.03;;;4.40;95.20;;;;;;5090655;28;20159;-72
2022/03/21 07:17:59;;;;;;;13.95;5.55;;;3.80;96.00;;;;;;5090490;28;20170;-72
2022/03/21 07:20:26;;;;;;;14.02;5.22;;;3.50;96.40;;;;;;5089921;28;20233;-72
2022/03/21 07:22:56;;;;;;;8.52;5.22;;;3.60;96.70;;;;;;5090560;28;20196;-72
2022/03/21 07:25:23;;;;;;;13.27;5.45;;;3.80;96.30;;;;;;5090538;28;20152;-72
2022/03/21 07:27:49;;;;;;;12.25;4.45;;;4.00;95.90;;;;;;5090639;28;20156;-72
2022/03/21 07:30:16;;;;;;;10.55;4.80;;;4.30;96.30;;;;;;5089638;28;20191;-71
2022/03/21 07:32:43;;;;;;;14.52;4.30;;;4.40;95.70;;;;;;5090431;28;20162;-71
2022/03/21 07:35:10;;;;;;;11.18;5.15;;;4.50;95.30;;;;;;5090425;28;20162;-71
2022/03/21 07:37:49;;;;;;;7.57;4.85;;;4.70;94.40;;;;;;5090385;28;20159;-71
2022/03/21 07:40:16;;;;;;;7.07;4.45;;;5.00;95.20;;;;;;5089746;28;20223;-71
2022/03/21 07:42:44;;;;;;;14.13;4.70;;;5.50;93.70;;;;;;5090343;28;20179;-71
2022/03/21 07:47:56;;;;;;;11.02;4.78;;;6.90;92.50;;;;;;5089896;28;20625;-72
2022/03/21 07:50:26;;;;;;;12.75;5.65;;;9.30;90.40;;;;;;5088875;28;20925;-72
2022/03/21 07:52:53;;;;;;;8.23;4.45;;;11.60;84.00;;;;;;5089928;28;20153;-72
2022/03/21 07:55:20;;;;;;;14.77;5.57;;;13.20;79.80;;;;;;5089960;28;20152;-72
2022/03/21 07:57:46;;;;;;;15.30;6.18;;;14.30;77.60;;;;;;5089608;28;20220;-70
2022/03/21 08:00:14;;;;;;;16.65;6.15;;;15.10;73.80;;;;;;5089777;28;20202;-70
2022/03/21 08:02:43;;;;;;;9.65;4.90;;;14.40;75.80;;;;;;5089126;28;20648;-71
2022/03/21 08:05:10;;;;;;;15.52;6.70;;;14.70;73.50;;;;;;5089687;28;20197;-72
2022/03/21 08:07:36;;;;;;;8.43;5.55;;;15.70;71.00;;;;;;5089644;28;20155;-71
2022/03/21 08:10:04;;;;;;;12.85;5.72;;;15.60;72.10;;;;;;5082321;28;20272;-71
2022/03/21 08:12:30;;;;;;;11.48;4.97;;;16.10;70.40;;;;;;5034362;28;20173;-71
2022/03/21 08:14:59;;;;;;;6.43;5.10;;;14.30;71.50;;;;;;5069373;28;20200;-71
2022/03/21 08:17:26;;;;;;;9.75;4.78;;;14.90;72.00;;;;;;5068602;28;20168;-71
2022/03/21 08:19:55;;;;;;;8.30;4.65;;;15.50;70.60;;;;;;5069263;28;20176;-71
2022/03/21 08:22:21;;;;;;;6.18;4.50;;;16.50;67.70;;;;;;5068884;28;20185;-71
2022/03/21 08:24:47;;;;;;;5.72;4.18;;;17.30;69.00;;;;;;5069299;28;20157;-71
2022/03/21 08:27:14;;;;;;;6.03;4.43;;;16.90;66.00;;;;;;5069344;28;20172;-71
2022/03/21 08:29:40;;;;;;;7.72;4.85;;;16.90;64.40;;;;;;5051071;28;20196;-71
2022/03/21 08:32:07;;;;;;;9.18;5.18;;;16.60;66.20;;;;;;5068745;28;20233;-71
2022/03/21 08:34:33;;;;;;;13.27;4.90;;;16.90;66.20;;;;;;5068699;28;20665;-71
2022/03/21 08:36:59;;;;;;;8.48;5.25;;;17.40;64.70;;;;;;5069367;28;20188;-71
2022/03/21 08:39:25;;;;;;;8.25;5.60;;;17.30;65.30;;;;;;5069106;28;20220;-71
2022/03/21 08:41:52;;;;;;;7.60;5.72;;;17.20;69.50;;;;;;5069167;28;20191;-71
2022/03/21 08:44:19;;;;;;;6.60;5.40;;;17.60;66.20;;;;;;5068553;28;20168;-71
2022/03/21 08:46:46;;;;;;;8.82;4.97;;;17.80;65.40;;;;;;5069076;28;20164;-71
2022/03/21 08:49:26;;;;;;;12.82;5.68;;;17.80;63.50;;;;;;5068993;28;20188;-71
2022/03/21 08:51:51;;;;;;;7.22;5.00;;;18.20;63.70;;;;;;5069024;28;20206;-71
2022/03/21 08:54:17;;;;;;;8.32;4.32;;;16.20;63.20;;;;;;5068544;28;20228;-72
2022/03/21 08:56:43;;;;;;;7.20;4.50;;;14.80;63.90;;;;;;5068936;28;20186;-72
2022/03/21 08:59:09;;;;;;;6.78;4.75;;;14.40;66.30;;;;;;5068755;28;20288;-70
2022/03/21 09:01:35;;;;;;;10.00;5.15;;;14.90;68.60;;;;;;5050699;28;20220;-70
2022/03/21 09:04:01;;;;;;;9.00;5.13;;;16.70;65.80;;;;;;5068324;28;20164;-72
2022/03/21 09:06:28;;;;;;;6.85;4.50;;;16.80;63.90;;;;;;5068999;28;20191;-71
2022/03/21 09:08:55;;;;;;;7.90;5.05;;;15.20;65.10;;;;;;5068837;28;20223;-72
2022/03/21 09:11:21;;;;;;;10.15;5.07;;;15.30;67.10;;;;;;5068569;28;20192;-72
2022/03/21 09:13:48;;;;;;;7.28;4.28;;;16.40;64.00;;;;;;5068726;28;20231;-72
2022/03/21 09:16:15;;;;;;;7.30;5.10;;;16.10;63.90;;;;;;5050470;28;20186;-71
2022/03/21 09:18:42;;;;;;;8.60;5.22;;;14.70;66.30;;;;;;5068626;28;20260;-71
2022/03/21 09:21:09;;;;;;;7.50;4.35;;;16.00;64.20;;;;;;5068826;28;20179;-72
2022/03/21 09:23:37;;;;;;;9.73;4.57;;;15.40;64.10;;;;;;5068645;28;20157;-72
2022/03/21 09:26:04;;;;;;;10.23;6.22;;;16.40;63.40;;;;;;5068184;28;20145;-71
2022/03/21 09:28:33;;;;;;;5.93;4.25;;;15.70;63.70;;;;;;5068653;28;20184;-71
2022/03/21 09:31:00;;;;;;;7.00;4.47;;;14.70;65.00;;;;;;5068980;28;20153;-73
2022/03/21 09:33:27;;;;;;;7.15;4.60;;;14.20;65.30;;;;;;5068639;28;20524;-72
2022/03/21 09:35:53;;;;;;;7.53;4.05;;;15.00;65.80;;;;;;5067998;28;20163;-73
2022/03/21 09:38:19;;;;;;;6.93;4.88;;;15.70;62.30;;;;;;5068313;28;20192;-72
2022/03/21 09:40:46;;;;;;;5.88;4.30;;;16.40;62.50;;;;;;5068501;28;20161;-72
2022/03/21 09:43:13;;;;;;;11.07;5.45;;;16.90;63.50;;;;;;5050655;28;20160;-73
2022/03/21 09:45:39;;;;;;;7.00;4.38;;;16.60;61.30;;;;;;5067938;28;20175;-72
2022/03/21 09:48:09;;;;;;;10.38;5.35;;;16.10;64.40;;;;;;5067888;28;20207;-73
2022/03/21 09:50:45;;;;;;;8.75;4.65;;;16.40;62.20;;;;;;5068372;28;20161;-72
2022/03/21 09:53:16;;;;;;;9.25;4.85;;;16.30;63.40;;;;;;5068147;28;20180;-73
2022/03/21 09:55:43;;;;;;;8.45;4.90;;;16.80;63.50;;;;;;5068169;28;20157;-73
2022/03/21 09:58:10;;;;;;;6.13;4.35;;;16.10;61.60;;;;;;5067503;28;20208;-72
2022/03/21 10:00:41;;;;;;;6.20;4.85;;;15.20;63.50;;;;;;5068312;28;20157;-74
2022/03/21 10:03:08;;;;;;;6.85;5.10;;;16.00;62.90;;;;;;5068114;28;20295;-72
2022/03/21 10:05:41;;;;;;;8.52;5.45;;;16.30;63.20;;;;;;5068202;28;20165;-72
2022/03/21 10:08:29;;;;;;;7.75;4.50;;;16.10;64.70;;;;;;5067416;28;20188;-73
2022/03/21 10:11:03;;;;;;;6.38;4.68;;;15.60;65.30;;;;;;5068229;28;20149;-72
2022/03/21 10:13:33;;;;;;;13.30;5.30;;;15.90;63.90;;;;;;5071173;28;20224;-73
2022/03/21 10:16:09;;;;;;;8.02;4.80;;;16.80;61.20;;;;;;5071587;28;20173;-73
2022/03/21 10:18:37;;;;;;;9.30;5.65;;;16.80;64.60;;;;;;5070769;28;20192;-72
2022/03/21 10:21:11;;;;;;;9.75;4.63;;;17.00;61.00;;;;;;5071751;28;20172;-73
2022/03/21 10:23:37;;;;;;;7.07;4.78;;;15.60;66.90;;;;;;5071729;28;20157;-73
2022/03/21 10:26:32;;;;;;;6.22;4.13;;;15.10;63.70;;;;;;5071541;28;20157;-73
2022/03/21 10:29:02;;;;;;;12.88;4.22;;;13.50;65.40;;;;;;5070809;28;20192;-74
2022/03/21 10:31:55;;;;;;;6.75;4.63;;;13.00;65.60;;;;;;5071500;28;20204;-73
2022/03/21 10:34:23;;;;;;;5.50;4.45;;;13.40;67.00;;;;;;5071549;28;20160;-72
2022/03/21 10:37:10;;;;;;;7.28;4.10;;;13.80;67.30;;;;;;5071337;28;20179;-72
2022/03/21 10:39:39;;;;;;;6.57;3.78;;;14.50;65.60;;;;;;5053045;28;20185;-72
2022/03/21 10:42:09;;;;;;;11.23;4.97;;;14.70;65.90;;;;;;5053274;28;20177;-72
2022/03/21 10:44:36;;;;;;;7.75;5.00;;;15.30;64.70;;;;;;5071280;28;20211;-71
2022/03/21 10:47:05;;;;;;;6.18;4.40;;;14.90;65.50;;;;;;5052085;28;20180;-73
2022/03/21 10:49:34;;;;;;;6.55;4.60;;;15.40;65.50;;;;;;5069972;28;20208;-72
2022/03/21 10:52:02;;;;;;;7.28;4.57;;;15.10;66.00;;;;;;5071132;28;20188;-73
2022/03/21 10:54:43;;;;;;;12.93;4.78;;;14.90;64.30;;;;;;5071001;28;20181;-72
2022/03/21 10:57:38;;;;;;;6.53;3.83;;;13.00;67.00;;;;;;5070955;28;20161;-72
2022/03/21 11:00:21;;;;;;;6.78;4.10;;;12.80;65.20;;;;;;5070519;28;20157;-72
2022/03/21 11:03:05;;;;;;;7.25;4.78;;;13.50;64.10;;;;;;5071009;28;20160;-72
2022/03/21 11:05:35;;;;;;;7.38;4.68;;;14.40;66.10;;;;;;5052898;28;20172;-71
2022/03/21 11:08:02;;;;;;;8.05;4.95;;;14.90;62.90;;;;;;5070645;28;20200;-72
2022/03/21 11:10:30;;;;;;;6.97;4.28;;;15.20;64.60;;;;;;5070069;28;20168;-72
2022/03/21 11:12:57;;;;;;;5.85;3.63;;;15.30;62.00;;;;;;5070452;28;20180;-72
2022/03/21 11:15:25;;;;;;;7.82;4.15;;;14.50;63.80;;;;;;5070311;28;20185;-72
2022/03/21 11:17:52;;;;;;;7.93;4.05;;;14.30;61.80;;;;;;5070376;28;20192;-72
2022/03/21 11:20:18;;;;;;;8.25;4.07;;;14.30;62.10;;;;;;5070016;28;20157;-72
2022/03/21 11:22:44;;;;;;;6.03;3.80;;;15.10;59.80;;;;;;5070230;28;20169;-72
2022/03/21 11:25:17;;;;;;;6.22;4.57;;;15.10;58.80;;;;;;5070466;28;20157;-72
2022/03/21 11:28:20;;;;;;;13.65;4.90;;;14.60;64.00;;;;;;5070519;28;20200;-72
2022/03/21 11:31:09;;;;;;;6.28;4.43;;;14.70;63.60;;;;;;5069678;28;20176;-72
2022/03/21 11:33:47;;;;;;;6.07;4.55;;;15.20;61.10;;;;;;5070394;28;20161;-72
2022/03/21 11:36:13;;;;;;;7.28;4.35;;;14.40;62.20;;;;;;5070520;28;20161;-72
2022/03/21 11:38:45;;;;;;;7.43;4.18;;;14.30;63.90;;;;;;5070232;28;20193;-73
2022/03/21 11:41:14;;;;;;;8.23;4.45;;;14.10;62.10;;;;;;5069835;28;20156;-72
2022/03/21 11:43:42;;;;;;;6.55;4.40;;;14.30;62.00;;;;;;5052222;28;20597;-73
2022/03/21 11:46:38;;;;;;;4.40;3.53;;;14.50;59.00;;;;;;5070058;28;20186;-72
2022/03/21 11:49:22;;;;;;;5.68;3.70;;;15.10;60.30;;;;;;5038706;28;20211;-73
2022/03/21 11:51:55;;;;;;;6.25;4.60;;;15.80;62.50;;;;;;5069435;28;20245;-72
2022/03/21 11:54:30;;;;;;;10.15;4.60;;;16.20;59.90;;;;;;5069847;28;20153;-71
2022/03/21 11:57:04;;;;;;;10.05;5.22;;;15.80;59.60;;;;;;5069833;28;20176;-72
2022/03/21 11:59:33;;;;;;;6.50;4.43;;;15.00;60.60;;;;;;5069810;28;20196;-72
2022/03/21 12:02:03;;;;;;;7.10;5.03;;;15.80;60.60;;;;;;5069077;28;20177;-72
2022/03/21 12:04:32;;;;;;;5.22;4.03;;;16.20;60.70;;;;;;5068978;28;20173;-72
2022/03/21 12:07:20;;;;;;;6.13;3.85;;;15.90;61.00;;;;;;5069662;28;20168;-72
2022/03/21 12:09:51;;;;;;;5.53;4.47;;;16.60;61.10;;;;;;5069353;28;20256;-72
2022/03/21 12:12:25;;;;;;;6.45;4.55;;;16.20;57.50;;;;;;5069360;28;20197;-72
2022/03/21 12:14:54;;;;;;;7.03;4.28;;;16.50;60.40;;;;;;5067444;28;20199;-72
2022/03/21 12:17:23;;;;;;;5.68;4.00;;;16.80;60.20;;;;;;5049397;28;20162;-72
2022/03/21 12:19:57;;;;;;;6.05;4.03;;;16.80;59.10;;;;;;5066516;28;20173;-72
2022/03/21 12:22:29;;;;;;;9.02;4.20;;;16.60;58.60;;;;;;5069329;28;20169;-72
2022/03/21 12:25:24;;;;;;;10.50;4.18;;;16.10;59.20;;;;;;5068727;28;20188;-72
2022/03/21 12:27:57;;;;;;;7.63;4.93;;;16.70;58.80;;;;;;5027013;28;20219;-72
2022/03/21 12:30:31;;;;;;;6.63;4.20;;;15.60;59.70;;;;;;5069149;28;20156;-72
2022/03/21 12:32:57;;;;;;;10.30;5.57;;;14.30;60.60;;;;;;5069025;28;20199;-72
2022/03/21 12:35:32;;;;;;;7.75;4.25;;;13.40;65.00;;;;;;5068017;28;20165;-72
2022/03/21 12:38:17;;;;;;;4.70;4.10;;;12.40;64.10;;;;;;5069029;28;20188;-73
2022/03/21 12:41:05;;;;;;;7.55;3.75;;;11.40;66.30;;;;;;5069030;28;20206;-72
2022/03/21 12:43:49;;;;;;;7.55;4.25;;;11.30;67.40;;;;;;5068892;28;20157;-72
2022/03/21 12:46:18;;;;;;;8.60;4.30;;;11.20;68.20;;;;;;5068041;28;20248;-72
2022/03/21 12:48:57;;;;;;;6.57;3.70;;;10.50;67.60;;;;;;5068912;28;20232;-71
2022/03/21 12:51:28;;;;;;;7.15;4.75;;;11.00;67.90;;;;;;5068891;28;20200;-71
2022/03/21 12:53:56;;;;;;;6.80;3.88;;;11.20;67.80;;;;;;5068735;28;20157;-72
2022/03/21 12:56:25;;;;;;;8.60;4.22;;;11.30;68.60;;;;;;5067857;28;20153;-72
2022/03/21 12:59:01;;;;;;;5.35;3.78;;;10.90;66.20;;;;;;5068338;28;20300;-72
2022/03/21 13:01:28;;;;;;;5.18;3.60;;;10.60;69.50;;;;;;5068722;28;20175;-70
2022/03/21 13:10:32;;;;;;;4.53;3.28;;;10.80;67.60;;;;;;5068391;28;20683;-72
2022/03/21 13:12:31;;;;;;;5.38;3.67;;;10.90;67.70;;;;;;5068794;28;20195;-73
2022/03/21 13:15:11;;;;;;;4.13;2.78;;;10.90;68.70;;;;;;5068267;28;20217;-72
2022/03/21 13:17:46;;;;;;;5.20;3.70;;;10.90;68.50;;;;;;5067808;28;20236;-72
2022/03/21 13:20:18;;;;;;;4.63;3.72;;;11.00;67.90;;;;;;5048460;28;20161;-71
2022/03/21 13:22:45;;;;;;;5.93;3.30;;;11.00;67.50;;;;;;5048683;28;20531;-72
2022/03/21 13:25:24;;;;;;;9.40;3.65;;;10.90;69.80;;;;;;5048528;28;20164;-72